Time;durP1;ratioP1;P1;durP2;ratioP2;P2;SDS_P1;SDS_P2;PMS_P1;PMS_P2;Temp;Humidity;BMP_temperature;BMP_pressure;BME280_temperature;BME280_humidity;BME280_pressure;Samples;Min_cycle;Max_cycle;Signal;HPM_P1;HPM_P2
2021/09/07 00:00:57;;;;;;;13.35;10.55;;;;;;;;;;5075345;28;20040;-68
2021/09/07 00:03:23;;;;;;;15.40;10.65;;;;;;;;;;5075202;28;20029;-68
2021/09/07 00:05:49;;;;;;;13.32;11.02;;;;;;;;;;5075354;28;20104;-68
2021/09/07 00:08:16;;;;;;;12.45;10.90;;;;;;;;;;5075226;28;20051;-69
2021/09/07 00:10:42;;;;;;;13.35;11.32;;;;;;;;;;5075482;28;20516;-69
2021/09/07 00:13:08;;;;;;;14.63;9.75;;;;;;;;;;5073916;28;20470;-68
2021/09/07 00:15:34;;;;;;;14.98;12.27;;;;;;;;;;5075240;28;20029;-68
2021/09/07 00:18:00;;;;;;;12.60;10.75;;;;;;;;;;5074864;28;20025;-68
2021/09/07 00:20:26;;;;;;;17.05;11.10;;;;;;;;;;5075368;28;20470;-70
2021/09/07 00:22:52;;;;;;;14.55;11.73;;;;;;;;;;5075045;28;20557;-69
2021/09/07 00:25:19;;;;;;;14.43;11.65;;;;;;;;;;5075054;28;20355;-68
2021/09/07 00:27:45;;;;;;;16.58;11.80;;;;;;;;;;5074574;28;20025;-69
2021/09/07 00:30:11;;;;;;;13.98;12.02;;;;;;;;;;5074953;28;20020;-68
2021/09/07 00:32:37;;;;;;;14.43;12.30;;;;;;;;;;5074383;28;20401;-68
2021/09/07 00:35:04;;;;;;;20.38;12.25;;;;;;;;;;5075136;28;20116;-68
2021/09/07 00:37:30;;;;;;;13.35;11.25;;;;;;;;;;5074700;28;20031;-68
2021/09/07 00:39:56;;;;;;;13.95;12.07;;;;;;;;;;5074431;28;20063;-68
2021/09/07 00:42:22;;;;;;;13.25;10.52;;;;;;;;;;5074703;28;20686;-68
2021/09/07 00:44:48;;;;;;;14.98;11.65;;;;;;;;;;5074489;28;20472;-68
2021/09/07 00:47:14;;;;;;;13.70;12.20;;;;;;;;;;5074165;28;20043;-69
2021/09/07 00:49:40;;;;;;;14.73;11.00;;;;;;;;;;5074361;28;20492;-69
2021/09/07 00:52:06;;;;;;;14.07;11.65;;;;;;;;;;5074206;28;20493;-69
2021/09/07 00:54:33;;;;;;;12.00;10.77;;;;;;;;;;5074506;28;20474;-68
2021/09/07 00:57:02;;;;;;;13.85;11.25;;;;;;;;;;5074137;28;20140;-68
2021/09/07 00:59:28;;;;;;;14.27;12.77;;;;;;;;;;5074341;28;20042;-68
2021/09/07 01:01:54;;;;;;;13.88;12.27;;;;;;;;;;5074004;28;20020;-68
2021/09/07 01:04:20;;;;;;;12.60;10.70;;;;;;;;;;5074225;28;20028;-69
2021/09/07 01:06:46;;;;;;;14.52;11.02;;;;;;;;;;5074486;28;20025;-68
2021/09/07 01:09:12;;;;;;;15.80;11.80;;;;;;;;;;5073737;28;20430;-68
2021/09/07 01:11:38;;;;;;;13.25;11.70;;;;;;;;;;5073952;28;20029;-68
2021/09/07 01:14:05;;;;;;;14.57;11.38;;;;;;;;;;5073810;28;20040;-68
2021/09/07 01:16:31;;;;;;;12.82;10.85;;;;;;;;;;5073918;28;20032;-68
2021/09/07 01:18:59;;;;;;;12.65;11.35;;;;;;;;;;5073901;28;20481;-69
2021/09/07 01:21:25;;;;;;;13.00;11.25;;;;;;;;;;5073966;28;20107;-69
2021/09/07 01:23:51;;;;;;;12.15;10.93;;;;;;;;;;5073440;28;20390;-68
2021/09/07 01:26:18;;;;;;;12.55;11.25;;;;;;;;;;5073754;28;20115;-68
2021/09/07 01:28:44;;;;;;;12.48;11.07;;;;;;;;;;5073645;28;20028;-68
2021/09/07 01:31:11;;;;;;;15.60;13.40;;;;;;;;;;5073575;28;20024;-68
2021/09/07 01:33:37;;;;;;;17.67;10.88;;;;;;;;;;5073523;28;20064;-70
2021/09/07 01:36:03;;;;;;;13.23;11.48;;;;;;;;;;5073589;28;20020;-68
2021/09/07 01:38:29;;;;;;;14.07;11.00;;;;;;;;;;5073574;28;20095;-68
2021/09/07 01:40:56;;;;;;;13.40;11.63;;;;;;;;;;5073730;28;20086;-68
2021/09/07 01:43:22;;;;;;;14.57;10.75;;;;;;;;;;5073180;28;20094;-68
2021/09/07 01:45:49;;;;;;;16.60;12.38;;;;;;;;;;5072995;28;20021;-68
2021/09/07 01:48:15;;;;;;;13.52;12.13;;;;;;;;;;5073375;28;20028;-68
2021/09/07 01:50:41;;;;;;;16.67;12.52;;;;;;;;;;5073557;28;20033;-68
2021/09/07 01:53:07;;;;;;;12.85;11.48;;;;;;;;;;5073294;28;20025;-68
2021/09/07 01:55:33;;;;;;;16.05;11.18;;;;;;;;;;5073267;28;20041;-68
2021/09/07 01:57:59;;;;;;;13.73;12.35;;;;;;;;;;5073076;28;20029;-68
2021/09/07 02:00:25;;;;;;;12.75;11.45;;;;;;;;;;5072909;28;20025;-68
2021/09/07 02:02:51;;;;;;;11.50;10.32;;;;;;;;;;5073206;28;20071;-68
2021/09/07 02:05:17;;;;;;;12.23;10.90;;;;;;;;;;5073383;28;20028;-68
2021/09/07 02:07:44;;;;;;;12.25;10.52;;;;;;;;;;5073113;28;20107;-68
2021/09/07 02:10:10;;;;;;;13.00;11.65;;;;;;;;;;5073221;28;20033;-69
2021/09/07 02:12:36;;;;;;;14.38;10.93;;;;;;;;;;5072943;28;20413;-68
2021/09/07 02:15:02;;;;;;;14.05;10.55;;;;;;;;;;5073136;28;20032;-68
2021/09/07 02:17:28;;;;;;;12.30;11.05;;;;;;;;;;5073107;28;20425;-68
2021/09/07 02:19:54;;;;;;;11.32;10.02;;;;;;;;;;5072932;28;20025;-68
2021/09/07 02:22:21;;;;;;;11.75;10.55;;;;;;;;;;5073112;28;20029;-68
2021/09/07 02:24:47;;;;;;;11.90;10.70;;;;;;;;;;5073080;28;20082;-68
2021/09/07 02:27:13;;;;;;;11.98;10.88;;;;;;;;;;5072845;28;20033;-69
2021/09/07 02:29:39;;;;;;;10.75;9.70;;;;;;;;;;5072842;28;20111;-69
2021/09/07 02:32:05;;;;;;;10.50;9.30;;;;;;;;;;5072803;28;20025;-69
2021/09/07 02:34:31;;;;;;;11.95;10.70;;;;;;;;;;5072849;28;20774;-68
2021/09/07 02:36:58;;;;;;;12.40;10.77;;;;;;;;;;5076451;28;20032;-69
2021/09/07 02:39:24;;;;;;;12.13;9.80;;;;;;;;;;5077441;28;20032;-68
2021/09/07 02:41:50;;;;;;;11.50;10.32;;;;;;;;;;5076881;28;20025;-68
2021/09/07 02:44:16;;;;;;;10.95;9.90;;;;;;;;;;5076784;28;20158;-69
2021/09/07 02:46:42;;;;;;;10.63;9.50;;;;;;;;;;5076744;28;20380;-68
2021/09/07 02:49:08;;;;;;;12.82;9.65;;;;;;;;;;5076945;28;20029;-68
2021/09/07 02:51:34;;;;;;;10.52;9.32;;;;;;;;;;5076678;28;20025;-68
2021/09/07 02:54:00;;;;;;;10.63;9.13;;;;;;;;;;5076340;28;20044;-68
2021/09/07 02:56:26;;;;;;;10.60;9.60;;;;;;;;;;5076223;28;20106;-68
2021/09/07 02:58:52;;;;;;;9.95;8.70;;;;;;;;;;5076800;28;20284;-68
2021/09/07 03:01:18;;;;;;;11.13;9.38;;;;;;;;;;5076367;28;20033;-68
2021/09/07 03:03:44;;;;;;;11.60;9.57;;;;;;;;;;5076254;28;20036;-68
2021/09/07 03:06:10;;;;;;;10.20;9.23;;;;;;;;;;5076567;28;20465;-68
2021/09/07 03:08:36;;;;;;;11.27;10.18;;;;;;;;;;5076465;28;20462;-68
2021/09/07 03:11:02;;;;;;;23.88;9.45;;;;;;;;;;5076571;28;20040;-68
2021/09/07 03:13:28;;;;;;;11.55;10.35;;;;;;;;;;5076046;28;20044;-68
2021/09/07 03:15:54;;;;;;;11.63;9.55;;;;;;;;;;5075435;28;20485;-69
2021/09/07 03:18:20;;;;;;;10.15;9.15;;;;;;;;;;5075305;28;20533;-68
2021/09/07 03:20:46;;;;;;;9.63;8.73;;;;;;;;;;5075949;28;20474;-68
2021/09/07 03:23:13;;;;;;;25.70;13.93;;;;;;;;;;5076083;28;20109;-68
2021/09/07 03:25:39;;;;;;;40.38;15.13;;;;;;;;;;5076257;28;20024;-68
2021/09/07 03:28:05;;;;;;;41.70;17.75;;;;;;;;;;5076181;28;20031;-68
2021/09/07 03:30:31;;;;;;;45.70;18.35;;;;;;;;;;5076049;28;20040;-68
2021/09/07 03:32:57;;;;;;;34.25;15.27;;;;;;;;;;5075519;28;20040;-68
2021/09/07 03:35:23;;;;;;;29.67;17.35;;;;;;;;;;5076006;28;20024;-68
2021/09/07 03:37:49;;;;;;;28.67;17.05;;;;;;;;;;5075768;28;20061;-68
2021/09/07 03:40:15;;;;;;;32.72;15.05;;;;;;;;;;5076071;28;20029;-68
2021/09/07 03:42:41;;;;;;;28.10;15.07;;;;;;;;;;5075841;28;20545;-68
2021/09/07 03:45:08;;;;;;;24.80;13.82;;;;;;;;;;5075610;28;20351;-69
2021/09/07 03:47:34;;;;;;;21.85;14.02;;;;;;;;;;5074547;28;20055;-68
2021/09/07 03:50:01;;;;;;;24.35;14.05;;;;;;;;;;5075942;28;20047;-68
2021/09/07 03:52:27;;;;;;;22.00;12.88;;;;;;;;;;5075563;28;20478;-69
2021/09/07 03:54:53;;;;;;;23.02;11.73;;;;;;;;;;5075333;28;20131;-68
2021/09/07 03:57:19;;;;;;;20.50;12.40;;;;;;;;;;5075815;28;20020;-69
2021/09/07 03:59:45;;;;;;;25.42;14.30;;;;;;;;;;5075373;28;20442;-69
2021/09/07 04:02:11;;;;;;;15.63;11.55;;;;;;;;;;5075641;28;20493;-69
2021/09/07 04:04:37;;;;;;;22.33;12.48;;;;;;;;;;5075398;28;20482;-68
2021/09/07 04:07:03;;;;;;;15.85;10.85;;;;;;;;;;5075440;28;20112;-68
2021/09/07 04:09:29;;;;;;;21.75;12.40;;;;;;;;;;5075533;28;20037;-68
2021/09/07 04:11:56;;;;;;;16.17;10.52;;;;;;;;;;5075024;28;20476;-68
2021/09/07 04:14:22;;;;;;;14.93;10.20;;;;;;;;;;5074836;28;20078;-68
2021/09/07 04:16:48;;;;;;;16.27;12.32;;;;;;;;;;5075676;28;20032;-69
2021/09/07 04:19:14;;;;;;;17.08;11.30;;;;;;;;;;5075149;28;20426;-68
2021/09/07 04:21:40;;;;;;;12.57;10.48;;;;;;;;;;5074996;28;20066;-69
2021/09/07 04:24:06;;;;;;;15.07;10.40;;;;;;;;;;5075306;28;20025;-69
2021/09/07 04:26:32;;;;;;;11.23;9.88;;;;;;;;;;5074919;28;20485;-69
2021/09/07 04:28:58;;;;;;;12.40;10.52;;;;;;;;;;5074677;28;20111;-69
2021/09/07 04:31:24;;;;;;;13.32;10.18;;;;;;;;;;5075042;28;20482;-69
2021/09/07 04:33:50;;;;;;;15.23;10.75;;;;;;;;;;5074742;28;20127;-68
2021/09/07 04:36:17;;;;;;;13.23;9.65;;;;;;;;;;5075024;28;20024;-68
2021/09/07 04:38:43;;;;;;;10.77;9.07;;;;;;;;;;5074793;28;20028;-68
2021/09/07 04:41:09;;;;;;;12.88;8.80;;;;;;;;;;5074669;28;20035;-68
2021/09/07 04:43:35;;;;;;;10.73;9.07;;;;;;;;;;5074406;28;20472;-69
2021/09/07 04:46:01;;;;;;;14.23;10.02;;;;;;;;;;5074987;28;20029;-69
2021/09/07 04:48:27;;;;;;;17.00;8.60;;;;;;;;;;5074652;28;20029;-69
2021/09/07 04:50:53;;;;;;;17.27;9.27;;;;;;;;;;5074447;28;20106;-70
2021/09/07 04:53:19;;;;;;;14.40;8.77;;;;;;;;;;5073337;28;20040;-70
2021/09/07 04:55:47;;;;;;;16.35;9.15;;;;;;;;;;5071599;28;20045;-72
2021/09/07 04:58:13;;;;;;;16.55;9.55;;;;;;;;;;5072536;28;20024;-71
2021/09/07 05:00:39;;;;;;;12.60;9.80;;;;;;;;;;5073172;28;20085;-70
2021/09/07 05:03:05;;;;;;;13.55;8.60;;;;;;;;;;5073036;28;20032;-70
2021/09/07 05:05:31;;;;;;;13.70;8.82;;;;;;;;;;5073178;28;20115;-71
2021/09/07 05:07:58;;;;;;;13.65;8.43;;;;;;;;;;5072110;28;20020;-70
2021/09/07 05:10:25;;;;;;;21.65;9.63;;;;;;;;;;5072154;28;20157;-72
2021/09/07 05:12:51;;;;;;;17.52;8.75;;;;;;;;;;5071964;28;20047;-70
2021/09/07 05:15:17;;;;;;;12.77;8.52;;;;;;;;;;5073538;28;20075;-77
2021/09/07 05:17:44;;;;;;;11.90;8.43;;;;;;;;;;5073154;28;20028;-71
2021/09/07 05:20:10;;;;;;;12.38;8.15;;;;;;;;;;5072510;28;20037;-70
2021/09/07 05:22:37;;;;;;;13.82;9.55;;;;;;;;;;5071009;28;20021;-71
2021/09/07 05:25:05;;;;;;;10.00;7.65;;;;;;;;;;5072920;28;20028;-70
2021/09/07 05:27:32;;;;;;;9.48;7.35;;;;;;;;;;5072478;28;20378;-68
2021/09/07 05:29:58;;;;;;;10.70;7.88;;;;;;;;;;5072714;28;20052;-69
2021/09/07 05:32:24;;;;;;;16.67;7.95;;;;;;;;;;5072621;28;20028;-69
2021/09/07 05:34:50;;;;;;;16.40;9.15;;;;;;;;;;5072712;28;20074;-68
2021/09/07 05:37:16;;;;;;;9.90;6.93;;;;;;;;;;5072646;28;20025;-68
2021/09/07 05:39:42;;;;;;;13.80;7.78;;;;;;;;;;5073533;28;20545;-68
2021/09/07 05:42:08;;;;;;;19.58;8.07;;;;;;;;;;5073608;28;20032;-69
2021/09/07 05:44:34;;;;;;;10.30;7.90;;;;;;;;;;5072522;28;20104;-69
2021/09/07 05:47:01;;;;;;;13.85;7.50;;;;;;;;;;5073531;28;20024;-69
2021/09/07 05:49:27;;;;;;;11.23;7.13;;;;;;;;;;5073437;28;20020;-69
2021/09/07 05:51:53;;;;;;;12.52;7.72;;;;;;;;;;5073266;28;20021;-69
2021/09/07 05:54:19;;;;;;;12.98;7.75;;;;;;;;;;5073145;28;20124;-69
2021/09/07 05:56:45;;;;;;;11.50;7.47;;;;;;;;;;5073401;28;20094;-69
2021/09/07 05:59:12;;;;;;;17.40;7.97;;;;;;;;;;5073319;28;20024;-69
2021/09/07 06:01:38;;;;;;;8.00;7.15;;;;;;;;;;5073091;28;20063;-69
2021/09/07 06:04:05;;;;;;;10.13;7.25;;;;;;;;;;5073370;28;20025;-69
2021/09/07 06:06:31;;;;;;;9.27;7.30;;;;;;;;;;5073533;28;20104;-68
2021/09/07 06:08:57;;;;;;;7.80;7.03;;;;;;;;;;5072911;28;20025;-68
2021/09/07 06:11:23;;;;;;;7.50;6.70;;;;;;;;;;5071897;28;20055;-69
2021/09/07 06:13:49;;;;;;;9.88;6.32;;;;;;;;;;5072453;28;20040;-70
2021/09/07 06:16:15;;;;;;;8.25;7.38;;;;;;;;;;5072518;28;20023;-69
2021/09/07 06:18:41;;;;;;;12.00;6.72;;;;;;;;;;5072923;28;20025;-69
2021/09/07 06:21:07;;;;;;;7.68;6.97;;;;;;;;;;5073032;28;20473;-70
2021/09/07 06:23:33;;;;;;;7.10;6.45;;;;;;;;;;5072512;28;20482;-70
2021/09/07 06:25:59;;;;;;;8.00;6.20;;;;;;;;;;5072398;28;20120;-70
2021/09/07 06:28:26;;;;;;;13.10;8.75;;;;;;;;;;5072295;28;20027;-69
2021/09/07 06:30:52;;;;;;;6.93;6.22;;;;;;;;;;5072807;28;20111;-70
2021/09/07 06:33:18;;;;;;;7.38;6.63;;;;;;;;;;5072796;28;20032;-70
2021/09/07 06:35:44;;;;;;;8.65;6.15;;;;;;;;;;5071977;28;20052;-70
2021/09/07 06:38:11;;;;;;;9.23;6.63;;;;;;;;;;5072534;28;20025;-69
2021/09/07 06:40:37;;;;;;;7.13;5.93;;;;;;;;;;5072435;28;20103;-70
2021/09/07 06:43:03;;;;;;;7.95;6.93;;;;;;;;;;5072284;28;20031;-69
2021/09/07 06:45:29;;;;;;;8.93;7.22;;;;;;;;;;5072386;28;20082;-69
2021/09/07 06:47:55;;;;;;;8.95;6.68;;;;;;;;;;5071951;28;20028;-69
2021/09/07 06:50:21;;;;;;;8.65;7.65;;;;;;;;;;5072285;28;20068;-70
2021/09/07 06:52:48;;;;;;;8.23;6.60;;;;;;;;;;5071884;28;20040;-69
2021/09/07 06:55:14;;;;;;;6.82;6.22;;;;;;;;;;5071878;28;20545;-69
2021/09/07 06:57:40;;;;;;;6.72;6.13;;;;;;;;;;5072043;28;20394;-68
2021/09/07 07:00:06;;;;;;;6.97;6.28;;;;;;;;;;5072850;28;20396;-69
2021/09/07 07:02:32;;;;;;;7.68;6.97;;;;;;;;;;5072377;28;20020;-68
2021/09/07 07:05:00;;;;;;;8.48;6.30;;;;;;;;;;5072107;28;20059;-69
2021/09/07 07:07:26;;;;;;;8.52;7.28;;;;;;;;;;5071754;28;20527;-70
2021/09/07 07:09:52;;;;;;;7.43;6.57;;;;;;;;;;5071280;28;20466;-70
2021/09/07 07:12:18;;;;;;;8.18;6.55;;;;;;;;;;5072248;28;20106;-69
2021/09/07 07:14:44;;;;;;;9.23;5.78;;;;;;;;;;5072598;28;20075;-69
2021/09/07 07:17:10;;;;;;;7.38;6.70;;;;;;;;;;5072577;28;20033;-69
2021/09/07 07:19:36;;;;;;;8.52;6.18;;;;;;;;;;5072149;28;20151;-69
2021/09/07 07:22:02;;;;;;;26.00;6.82;;;;;;;;;;5073583;28;20121;-69
2021/09/07 07:24:28;;;;;;;8.70;7.35;;;;;;;;;;5075374;28;20031;-69
2021/09/07 07:26:55;;;;;;;11.20;6.78;;;;;;;;;;5075693;28;20029;-69
2021/09/07 07:29:21;;;;;;;8.23;6.97;;;;;;;;;;5076107;28;20486;-68
2021/09/07 07:31:47;;;;;;;7.43;6.50;;;;;;;;;;5075259;28;20048;-69
2021/09/07 07:34:13;;;;;;;7.50;6.80;;;;;;;;;;5075285;28;20036;-69
2021/09/07 07:36:39;;;;;;;7.18;6.40;;;;;;;;;;5075636;28;20477;-69
2021/09/07 07:39:05;;;;;;;7.28;6.57;;;;;;;;;;5075684;28;20028;-70
2021/09/07 07:41:31;;;;;;;7.85;7.05;;;;;;;;;;5075887;28;20032;-69
2021/09/07 07:43:57;;;;;;;7.00;6.30;;;;;;;;;;5075172;28;20032;-69
2021/09/07 07:46:23;;;;;;;7.57;6.78;;;;;;;;;;5075220;28;20025;-69
2021/09/07 07:48:49;;;;;;;6.82;6.18;;;;;;;;;;5075103;28;20024;-69
2021/09/07 07:51:16;;;;;;;6.40;5.80;;;;;;;;;;5075222;28;20359;-71
2021/09/07 07:53:42;;;;;;;7.65;6.93;;;;;;;;;;5074558;28;20037;-71
2021/09/07 07:56:08;;;;;;;7.80;6.35;;;;;;;;;;5074820;28;20084;-70
2021/09/07 07:58:34;;;;;;;8.48;6.72;;;;;;;;;;5075283;28;20534;-71
2021/09/07 08:01:01;;;;;;;7.72;6.93;;;;;;;;;;5075547;28;20098;-70
2021/09/07 08:03:27;;;;;;;8.70;6.18;;;;;;;;;;5075098;28;20028;-72
2021/09/07 08:05:53;;;;;;;8.02;5.90;;;;;;;;;;5074834;28;20366;-72
2021/09/07 08:08:19;;;;;;;8.73;6.45;;;;;;;;;;5074893;28;20074;-72
2021/09/07 08:10:45;;;;;;;8.02;6.82;;;;;;;;;;5074941;28;20500;-72
2021/09/07 08:13:11;;;;;;;6.85;6.22;;;;;;;;;;5074803;28;20440;-72
2021/09/07 08:15:37;;;;;;;6.47;5.88;;;;;;;;;;5074950;28;20025;-72
2021/09/07 08:18:03;;;;;;;7.45;6.68;;;;;;;;;;5075041;28;20056;-72
2021/09/07 08:20:31;;;;;;;8.57;6.60;;;;;;;;;;5074842;28;20074;-73
2021/09/07 08:22:58;;;;;;;7.07;6.38;;;;;;;;;;5074876;28;20107;-71
2021/09/07 08:25:24;;;;;;;6.97;6.20;;;;;;;;;;5075121;28;20412;-71
2021/09/07 08:27:50;;;;;;;7.43;6.18;;;;;;;;;;5075001;28;20024;-71
2021/09/07 08:30:16;;;;;;;6.68;6.00;;;;;;;;;;5074608;28;20381;-72
2021/09/07 08:32:42;;;;;;;8.00;5.47;;;;;;;;;;5074049;28;20119;-72
2021/09/07 08:35:09;;;;;;;5.78;5.25;;;;;;;;;;5073681;28;20024;-72
2021/09/07 08:37:35;;;;;;;6.20;5.60;;;;;;;;;;5074010;28;20028;-75
2021/09/07 08:40:01;;;;;;;6.80;6.20;;;;;;;;;;5074169;28;20028;-71
2021/09/07 08:42:27;;;;;;;6.95;6.30;;;;;;;;;;5074042;28;20092;-72
2021/09/07 08:44:53;;;;;;;7.70;6.57;;;;;;;;;;5073935;28;20032;-68
2021/09/07 08:47:20;;;;;;;6.18;5.68;;;;;;;;;;5073378;28;20028;-69
2021/09/07 08:49:48;;;;;;;7.88;6.63;;;;;;;;;;5073537;28;20485;-69
2021/09/07 08:52:14;;;;;;;8.35;6.15;;;;;;;;;;5074195;28;20029;-69
2021/09/07 08:54:41;;;;;;;8.52;6.32;;;;;;;;;;5074140;28;20141;-68
2021/09/07 08:57:07;;;;;;;9.80;6.72;;;;;;;;;;5073757;28;20420;-69
2021/09/07 08:59:33;;;;;;;6.82;6.22;;;;;;;;;;5073942;28;20037;-69
2021/09/07 09:02:10;;;;;;;8.73;6.30;;;;;;;;;;5074161;28;20070;-69
2021/09/07 09:04:36;;;;;;;10.75;6.38;;;;;;;;;;5071046;28;20135;-68
2021/09/07 09:07:03;;;;;;;13.88;6.38;;;;;;;;;;5072652;28;20028;-69
2021/09/07 09:09:45;;;;;;;8.23;6.07;;;;;;;;;;5073751;28;20037;-69
2021/09/07 09:12:11;;;;;;;7.38;5.93;;;;;;;;;;5072511;28;20027;-69
2021/09/07 09:14:38;;;;;;;6.85;6.20;;;;;;;;;;5072276;28;20123;-69
2021/09/07 09:17:23;;;;;;;5.88;5.28;;;;;;;;;;5072396;28;20081;-70
2021/09/07 09:20:17;;;;;;;6.38;5.63;;;;;;;;;;5072762;28;20100;-70
2021/09/07 09:22:44;;;;;;;6.40;5.78;;;;;;;;;;5059943;28;20032;-69
2021/09/07 09:25:23;;;;;;;7.28;6.53;;;;;;;;;;5073311;28;20056;-69
2021/09/07 09:28:09;;;;;;;6.25;5.65;;;;;;;;;;5071182;28;20103;-69
2021/09/07 09:30:55;;;;;;;7.53;6.63;;;;;;;;;;5071017;28;20630;-70
2021/09/07 09:33:22;;;;;;;7.93;5.85;;;;;;;;;;5055481;28;20047;-69
2021/09/07 09:35:50;;;;;;;6.63;5.93;;;;;;;;;;5072959;28;20029;-68
2021/09/07 09:38:17;;;;;;;28.80;7.10;;;;;;;;;;5072111;28;20539;-69
2021/09/07 09:40:43;;;;;;;7.10;6.32;;;;;;;;;;5072813;28;20492;-69
2021/09/07 09:43:32;;;;;;;8.43;6.00;;;;;;;;;;5073057;28;20117;-69
2021/09/07 09:45:58;;;;;;;7.15;6.38;;;;;;;;;;5058366;28;20049;-68
2021/09/07 09:48:27;;;;;;;21.38;7.35;;;;;;;;;;5072739;28;20021;-69
2021/09/07 09:50:53;;;;;;;9.93;6.93;;;;;;;;;;5072455;28;20439;-69
2021/09/07 09:53:20;;;;;;;6.00;5.50;;;;;;;;;;5072723;28;20060;-69
2021/09/07 09:55:47;;;;;;;6.43;5.82;;;;;;;;;;5072091;28;20052;-69
2021/09/07 09:58:14;;;;;;;7.70;6.25;;;;;;;;;;5072860;28;20125;-69
2021/09/07 10:00:40;;;;;;;6.25;5.65;;;;;;;;;;5072532;28;20490;-68
2021/09/07 10:03:09;;;;;;;9.38;6.93;;;;;;;;;;5072895;28;20382;-69
2021/09/07 10:05:35;;;;;;;9.30;5.25;;;;;;;;;;5072041;28;20024;-73
2021/09/07 10:08:02;;;;;;;6.55;5.93;;;;;;;;;;5072583;28;20020;-68
2021/09/07 10:10:28;;;;;;;14.60;6.15;;;;;;;;;;5072397;28;20079;-69
2021/09/07 10:12:56;;;;;;;7.32;5.97;;;;;;;;;;5072570;28;20104;-70
2021/09/07 10:15:28;;;;;;;7.68;6.03;;;;;;;;;;5072444;28;20028;-70
2021/09/07 10:18:26;;;;;;;7.88;5.75;;;;;;;;;;5071977;28;20496;-72
2021/09/07 10:21:02;;;;;;;7.53;6.70;;;;;;;;;;5059411;28;20377;-70
2021/09/07 10:23:55;;;;;;;10.73;6.82;;;;;;;;;;5072105;28;20032;-70
2021/09/07 10:26:41;;;;;;;9.13;6.47;;;;;;;;;;5058300;28;20024;-70
2021/09/07 10:29:07;;;;;;;7.28;6.63;;;;;;;;;;5057289;28;20381;-70
2021/09/07 10:31:50;;;;;;;7.00;6.30;;;;;;;;;;5072396;28;20028;-70
2021/09/07 10:34:16;;;;;;;8.23;6.60;;;;;;;;;;5072118;28;20039;-69
2021/09/07 10:37:03;;;;;;;7.30;6.32;;;;;;;;;;5072111;28;20040;-70
2021/09/07 10:39:32;;;;;;;8.30;7.50;;;;;;;;;;5057646;28;20031;-70
2021/09/07 10:41:59;;;;;;;7.13;6.43;;;;;;;;;;5072021;28;20453;-69
2021/09/07 10:44:28;;;;;;;8.90;6.50;;;;;;;;;;5071107;28;20024;-70
2021/09/07 10:47:05;;;;;;;8.27;7.38;;;;;;;;;;5068998;28;20016;-70
2021/09/07 10:49:51;;;;;;;6.78;5.72;;;;;;;;;;5068533;28;20074;-70
2021/09/07 10:52:21;;;;;;;8.57;6.00;;;;;;;;;;5053239;28;20020;-69
2021/09/07 10:54:51;;;;;;;8.45;5.53;;;;;;;;;;5053585;28;20079;-68
2021/09/07 10:57:38;;;;;;;6.45;5.05;;;;;;;;;;5039088;28;20099;-70
2021/09/07 11:00:24;;;;;;;15.32;7.25;;;;;;;;;;5021107;28;20032;-71
2021/09/07 11:02:54;;;;;;;8.23;6.22;;;;;;;;;;5021322;28;20026;-72
2021/09/07 11:05:36;;;;;;;7.93;7.13;;;;;;;;;;5034939;28;20059;-71
2021/09/07 11:08:04;;;;;;;11.20;6.55;;;;;;;;;;5035647;28;20475;-70
2021/09/07 11:10:31;;;;;;;8.35;6.07;;;;;;;;;;5035551;28;20450;-71
2021/09/07 11:12:58;;;;;;;8.20;6.72;;;;;;;;;;5035366;28;20056;-71
2021/09/07 11:15:25;;;;;;;7.85;6.45;;;;;;;;;;5041886;28;20048;-71
2021/09/07 11:17:52;;;;;;;8.13;6.28;;;;;;;;;;5042487;28;20025;-71
2021/09/07 11:20:19;;;;;;;8.63;5.50;;;;;;;;;;5055217;28;20494;-70
2021/09/07 11:22:45;;;;;;;7.57;6.65;;;;;;;;;;5055081;28;20544;-70
2021/09/07 11:25:12;;;;;;;9.18;6.20;;;;;;;;;;5054656;28;20457;-70
2021/09/07 11:27:55;;;;;;;8.80;5.40;;;;;;;;;;5054985;28;20082;-69
2021/09/07 11:30:25;;;;;;;9.77;6.60;;;;;;;;;;5055448;28;20040;-69
2021/09/07 11:32:55;;;;;;;8.60;7.15;;;;;;;;;;5055456;28;20065;-69
2021/09/07 11:35:21;;;;;;;7.50;6.80;;;;;;;;;;5055366;28;20021;-69
2021/09/07 11:37:48;;;;;;;6.93;6.25;;;;;;;;;;5054894;28;20025;-69
2021/09/07 11:40:16;;;;;;;6.40;5.80;;;;;;;;;;5055200;28;20033;-69
2021/09/07 11:42:49;;;;;;;7.05;6.35;;;;;;;;;;5055082;28;20055;-69
2021/09/07 11:45:18;;;;;;;10.82;6.05;;;;;;;;;;5055044;28;20017;-69
2021/09/07 11:47:45;;;;;;;11.25;6.70;;;;;;;;;;5054816;28;20099;-69
2021/09/07 11:50:15;;;;;;;7.22;6.53;;;;;;;;;;5054489;28;20025;-70
2021/09/07 11:52:41;;;;;;;7.32;6.57;;;;;;;;;;5054853;28;20112;-69
2021/09/07 11:55:08;;;;;;;8.73;6.57;;;;;;;;;;5054817;28;20053;-69
2021/09/07 11:57:49;;;;;;;6.82;6.13;;;;;;;;;;5055022;28;20024;-70
2021/09/07 12:00:21;;;;;;;10.45;7.65;;;;;;;;;;5054821;28;20033;-70
2021/09/07 12:02:46;;;;;;;;;;;;;;;;;;5055148;28;20029;-69
2021/09/07 12:05:12;;;;;;;9.93;8.00;;;;;;;;;;5054795;28;20004;-70
2021/09/07 12:07:51;;;;;;;12.80;6.20;;;;;;;;;;5053759;28;20079;-70
2021/09/07 12:10:17;;;;;;;7.88;7.13;;;;;;;;;;5054692;28;20108;-69
2021/09/07 12:12:43;;;;;;;7.45;6.60;;;;;;;;;;5054430;28;20029;-70
2021/09/07 12:15:17;;;;;;;7.57;6.47;;;;;;;;;;5054016;28;20378;-71
2021/09/07 12:17:45;;;;;;;8.80;8.00;;;;;;;;;;5053760;28;20029;-71
2021/09/07 12:20:12;;;;;;;7.28;6.57;;;;;;;;;;5053224;28;20017;-69
2021/09/07 12:22:40;;;;;;;9.77;7.18;;;;;;;;;;5052788;28;20502;-70
2021/09/07 12:25:13;;;;;;;7.18;6.50;;;;;;;;;;5052745;28;20037;-73
2021/09/07 12:27:43;;;;;;;8.50;6.20;;;;;;;;;;5052746;28;20021;-72
2021/09/07 12:30:11;;;;;;;8.15;6.55;;;;;;;;;;5053306;28;20040;-72
2021/09/07 12:32:58;;;;;;;8.07;5.75;;;;;;;;;;5054252;28;20072;-74
2021/09/07 12:35:27;;;;;;;6.68;5.63;;;;;;;;;;5039521;28;20045;-75
2021/09/07 12:37:54;;;;;;;6.75;6.15;;;;;;;;;;5053592;28;20490;-73
2021/09/07 12:40:20;;;;;;;7.00;5.95;;;;;;;;;;5050999;28;20474;-71
2021/09/07 12:42:46;;;;;;;10.50;6.47;;;;;;;;;;5053800;28;20383;-71
2021/09/07 12:45:12;;;;;;;15.10;6.13;;;;;;;;;;5052458;28;20096;-72
2021/09/07 12:47:38;;;;;;;6.30;5.53;;;;;;;;;;5053052;28;20025;-73
2021/09/07 12:50:04;;;;;;;8.07;6.78;;;;;;;;;;5053203;28;20388;-72
2021/09/07 12:52:30;;;;;;;6.80;6.15;;;;;;;;;;5053385;28;20036;-73
2021/09/07 12:54:56;;;;;;;6.53;5.88;;;;;;;;;;5052700;28;20032;-73
2021/09/07 12:57:22;;;;;;;10.60;6.28;;;;;;;;;;5052664;28;20029;-73
2021/09/07 12:59:48;;;;;;;7.35;6.38;;;;;;;;;;5053026;28;20104;-72
2021/09/07 13:02:14;;;;;;;7.80;6.72;;;;;;;;;;5053314;28;20025;-73
2021/09/07 13:04:40;;;;;;;11.57;6.13;;;;;;;;;;5052875;28;20111;-73
2021/09/07 13:07:07;;;;;;;13.75;5.95;;;;;;;;;;5052803;28;20025;-73
2021/09/07 13:09:33;;;;;;;10.38;6.25;;;;;;;;;;5052065;28;20297;-72
2021/09/07 13:11:59;;;;;;;8.82;7.00;;;;;;;;;;5052694;28;20083;-73
2021/09/07 13:14:25;;;;;;;8.80;7.53;;;;;;;;;;5053279;28;20482;-72
2021/09/07 13:16:51;;;;;;;14.50;6.75;;;;;;;;;;5053176;28;20047;-72
2021/09/07 13:19:17;;;;;;;8.02;7.20;;;;;;;;;;5053040;28;20546;-72
2021/09/07 13:21:43;;;;;;;13.43;6.88;;;;;;;;;;5052833;28;20363;-73
2021/09/07 13:24:09;;;;;;;13.02;6.05;;;;;;;;;;5052000;28;20032;-77
2021/09/07 13:26:36;;;;;;;11.13;7.30;;;;;;;;;;5052318;28;20108;-77
2021/09/07 13:29:02;;;;;;;10.23;6.68;;;;;;;;;;5053738;28;20075;-75
2021/09/07 13:31:28;;;;;;;9.57;7.03;;;;;;;;;;5053036;28;20032;-75
2021/09/07 13:33:54;;;;;;;16.40;7.60;;;;;;;;;;5052714;28;20492;-80
2021/09/07 13:36:22;;;;;;;12.48;6.72;;;;;;;;;;5061424;28;20601;-75
2021/09/07 13:38:48;;;;;;;16.73;6.53;;;;;;;;;;5057700;28;20013;-77
2021/09/07 13:41:14;;;;;;;19.73;7.03;;;;;;;;;;5052147;28;20498;-75
2021/09/07 13:43:40;;;;;;;12.65;8.63;;;;;;;;;;5052475;28;20025;-79
2021/09/07 13:46:06;;;;;;;16.17;6.68;;;;;;;;;;5053780;28;20111;-74
2021/09/07 13:48:35;;;;;;;12.63;8.13;;;;;;;;;;5051173;28;20025;-74
2021/09/07 13:51:02;;;;;;;12.88;8.07;;;;;;;;;;5053243;28;20522;-74
2021/09/07 13:53:29;;;;;;;15.07;7.68;;;;;;;;;;5052929;28;20036;-76
2021/09/07 13:55:55;;;;;;;12.65;6.70;;;;;;;;;;5054428;28;20048;-76
2021/09/07 13:58:21;;;;;;;18.75;8.02;;;;;;;;;;5053627;28;20049;-77
2021/09/07 14:00:47;;;;;;;9.52;6.82;;;;;;;;;;5053438;28;20028;-78
2021/09/07 14:03:13;;;;;;;15.38;6.78;;;;;;;;;;5055224;28;20032;-78
2021/09/07 14:05:39;;;;;;;18.05;8.07;;;;;;;;;;5052774;28;20151;-74
2021/09/07 14:08:05;;;;;;;13.95;7.30;;;;;;;;;;5050587;28;20037;-77
2021/09/07 14:10:31;;;;;;;19.05;7.15;;;;;;;;;;5050944;28;20381;-77
2021/09/07 14:12:58;;;;;;;10.02;8.02;;;;;;;;;;5051336;28;20032;-76
2021/09/07 14:15:24;;;;;;;14.60;7.50;;;;;;;;;;5053350;28;20033;-78
2021/09/07 14:17:51;;;;;;;9.05;7.13;;;;;;;;;;5053735;28;20028;-84
2021/09/07 14:20:17;;;;;;;8.40;7.07;;;;;;;;;;5054210;28;20021;-76
2021/09/07 14:22:43;;;;;;;12.40;7.68;;;;;;;;;;5051857;28;20441;-74
2021/09/07 14:25:09;;;;;;;25.70;7.47;;;;;;;;;;5052042;28;20067;-75
2021/09/07 14:27:36;;;;;;;8.30;7.50;;;;;;;;;;5051702;28;20017;-77
2021/09/07 14:30:02;;;;;;;12.73;7.82;;;;;;;;;;5053393;28;20028;-74
2021/09/07 14:32:28;;;;;;;8.55;6.75;;;;;;;;;;5051874;28;20025;-75
2021/09/07 14:34:55;;;;;;;10.55;7.40;;;;;;;;;;5048904;28;20037;-81